sensor_id;sensor_type;location;lat;lon;timestamp;pressure;altitude;pressure_sealevel;temperature
76898;BMP180;65856;52.178;21.176;2023-04-08T00:00:03;101048.60;;;6.10
76898;BMP180;65856;52.178;21.176;2023-04-08T00:02:32;101047.20;;;6.10
76898;BMP180;65856;52.178;21.176;2023-04-08T00:05:00;101043.80;;;6.10
76898;BMP180;65856;52.178;21.176;2023-04-08T00:07:28;101053.20;;;6.10
76898;BMP180;65856;52.178;21.176;2023-04-08T00:09:56;101051.60;;;6.10
76898;BMP180;65856;52.178;21.176;2023-04-08T00:12:24;101056.40;;;6.06
76898;BMP180;65856;52.178;21.176;2023-04-08T00:14:52;101056.40;;;6.00
76898;BMP180;65856;52.178;21.176;2023-04-08T00:17:20;101057.60;;;6.00
76898;BMP180;65856;52.178;21.176;2023-04-08T00:19:48;101059.40;;;6.00
76898;BMP180;65856;52.178;21.176;2023-04-08T00:22:16;101063.20;;;6.00
76898;BMP180;65856;52.178;21.176;2023-04-08T00:24:44;101063.60;;;6.00
76898;BMP180;65856;52.178;21.176;2023-04-08T00:27:12;101064.60;;;6.00
76898;BMP180;65856;52.178;21.176;2023-04-08T00:29:39;101057.60;;;6.00
76898;BMP180;65856;52.178;21.176;2023-04-08T00:32:07;101061.80;;;6.00
76898;BMP180;65856;52.178;21.176;2023-04-08T00:34:35;101064.00;;;6.00
76898;BMP180;65856;52.178;21.176;2023-04-08T00:37:04;101057.60;;;5.98
76898;BMP180;65856;52.178;21.176;2023-04-08T00:39:32;101060.40;;;5.92
76898;BMP180;65856;52.178;21.176;2023-04-08T00:42:00;101055.40;;;5.92
76898;BMP180;65856;52.178;21.176;2023-04-08T00:44:28;101055.20;;;5.90
76898;BMP180;65856;52.178;21.176;2023-04-08T00:46:56;101060.40;;;5.92
76898;BMP180;65856;52.178;21.176;2023-04-08T00:49:25;101063.40;;;5.90
76898;BMP180;65856;52.178;21.176;2023-04-08T00:51:55;101068.60;;;5.90
76898;BMP180;65856;52.178;21.176;2023-04-08T00:54:22;101066.40;;;5.90
76898;BMP180;65856;52.178;21.176;2023-04-08T00:56:50;101066.20;;;5.80
76898;BMP180;65856;52.178;21.176;2023-04-08T00:59:19;101068.80;;;5.80
76898;BMP180;65856;52.178;21.176;2023-04-08T01:01:56;101070.80;;;5.76
76898;BMP180;65856;52.178;21.176;2023-04-08T01:04:47;101081.20;;;5.80
76898;BMP180;65856;52.178;21.176;2023-04-08T01:07:21;101079.80;;;5.70
76898;BMP180;65856;52.178;21.176;2023-04-08T01:09:55;101078.40;;;5.70
76898;BMP180;65856;52.178;21.176;2023-04-08T01:12:28;101077.40;;;5.60
76898;BMP180;65856;52.178;21.176;2023-04-08T01:15:02;101077.80;;;5.60
76898;BMP180;65856;52.178;21.176;2023-04-08T01:17:32;101080.00;;;5.60
76898;BMP180;65856;52.178;21.176;2023-04-08T01:20:04;101079.40;;;5.60
76898;BMP180;65856;52.178;21.176;2023-04-08T01:22:45;101076.60;;;5.60
76898;BMP180;65856;52.178;21.176;2023-04-08T01:25:17;101077.80;;;5.60
76898;BMP180;65856;52.178;21.176;2023-04-08T01:27:49;101076.20;;;5.50
76898;BMP180;65856;52.178;21.176;2023-04-08T01:30:20;101075.20;;;5.40
76898;BMP180;65856;52.178;21.176;2023-04-08T01:32:49;101075.00;;;5.40
76898;BMP180;65856;52.178;21.176;2023-04-08T01:35:18;101073.80;;;5.36
76898;BMP180;65856;52.178;21.176;2023-04-08T01:37:50;101073.00;;;5.28
76898;BMP180;65856;52.178;21.176;2023-04-08T01:40:19;101076.60;;;5.20
76898;BMP180;65856;52.178;21.176;2023-04-08T01:42:50;101069.80;;;5.10
76898;BMP180;65856;52.178;21.176;2023-04-08T01:45:20;101072.80;;;5.04
76898;BMP180;65856;52.178;21.176;2023-04-08T01:47:49;101081.60;;;4.98
76898;BMP180;65856;52.178;21.176;2023-04-08T01:50:19;101083.60;;;4.90
76898;BMP180;65856;52.178;21.176;2023-04-08T01:52:49;101087.20;;;4.80
76898;BMP180;65856;52.178;21.176;2023-04-08T01:55:20;101082.40;;;4.76
76898;BMP180;65856;52.178;21.176;2023-04-08T01:57:51;101090.80;;;4.70
76898;BMP180;65856;52.178;21.176;2023-04-08T02:00:23;101099.60;;;4.60
76898;BMP180;65856;52.178;21.176;2023-04-08T02:02:53;101098.40;;;4.50
76898;BMP180;65856;52.178;21.176;2023-04-08T02:05:21;101099.80;;;4.50
76898;BMP180;65856;52.178;21.176;2023-04-08T02:07:49;101101.20;;;4.50
76898;BMP180;65856;52.178;21.176;2023-04-08T02:10:18;101098.80;;;4.40
76898;BMP180;65856;52.178;21.176;2023-04-08T02:12:46;101097.20;;;4.30
76898;BMP180;65856;52.178;21.176;2023-04-08T02:15:15;101102.40;;;4.30
76898;BMP180;65856;52.178;21.176;2023-04-08T02:17:48;101107.20;;;4.30
76898;BMP180;65856;52.178;21.176;2023-04-08T02:20:21;101104.40;;;4.22
76898;BMP180;65856;52.178;21.176;2023-04-08T02:22:56;101108.40;;;4.20
76898;BMP180;65856;52.178;21.176;2023-04-08T02:25:28;101106.60;;;4.12
76898;BMP180;65856;52.178;21.176;2023-04-08T02:27:59;101114.00;;;4.10
76898;BMP180;65856;52.178;21.176;2023-04-08T02:30:31;101110.60;;;4.00
76898;BMP180;65856;52.178;21.176;2023-04-08T02:33:02;101116.80;;;3.90
76898;BMP180;65856;52.178;21.176;2023-04-08T02:35:32;101112.80;;;3.90
76898;BMP180;65856;52.178;21.176;2023-04-08T02:38:00;101116.80;;;3.80
76898;BMP180;65856;52.178;21.176;2023-04-08T02:40:30;101116.80;;;3.74
76898;BMP180;65856;52.178;21.176;2023-04-08T02:42:59;101109.40;;;3.70
76898;BMP180;65856;52.178;21.176;2023-04-08T02:45:30;101115.00;;;3.64
76898;BMP180;65856;52.178;21.176;2023-04-08T02:47:59;101116.80;;;3.60
76898;BMP180;65856;52.178;21.176;2023-04-08T02:50:27;101119.20;;;3.50
76898;BMP180;65856;52.178;21.176;2023-04-08T02:52:55;101120.40;;;3.50
76898;BMP180;65856;52.178;21.176;2023-04-08T02:55:23;101132.40;;;3.50
76898;BMP180;65856;52.178;21.176;2023-04-08T02:57:51;101136.60;;;3.44
76898;BMP180;65856;52.178;21.176;2023-04-08T03:00:19;101141.20;;;3.30
76898;BMP180;65856;52.178;21.176;2023-04-08T03:02:47;101140.80;;;3.26
76898;BMP180;65856;52.178;21.176;2023-04-08T03:05:15;101142.20;;;3.22
76898;BMP180;65856;52.178;21.176;2023-04-08T03:07:43;101147.20;;;3.20
76898;BMP180;65856;52.178;21.176;2023-04-08T03:10:12;101148.40;;;3.20
76898;BMP180;65856;52.178;21.176;2023-04-08T03:12:40;101147.40;;;3.16
76898;BMP180;65856;52.178;21.176;2023-04-08T03:15:09;101148.80;;;3.20
76898;BMP180;65856;52.178;21.176;2023-04-08T03:17:37;101147.20;;;3.10
76898;BMP180;65856;52.178;21.176;2023-04-08T03:20:08;101150.00;;;3.10
76898;BMP180;65856;52.178;21.176;2023-04-08T03:22:36;101153.40;;;3.10
76898;BMP180;65856;52.178;21.176;2023-04-08T03:25:06;101156.00;;;3.00
76898;BMP180;65856;52.178;21.176;2023-04-08T03:27:34;101159.80;;;3.00
76898;BMP180;65856;52.178;21.176;2023-04-08T03:30:02;101159.20;;;3.00
76898;BMP180;65856;52.178;21.176;2023-04-08T03:32:30;101160.60;;;3.00
76898;BMP180;65856;52.178;21.176;2023-04-08T03:34:59;101160.40;;;2.90
76898;BMP180;65856;52.178;21.176;2023-04-08T03:37:27;101154.60;;;2.90
76898;BMP180;65856;52.178;21.176;2023-04-08T03:39:55;101149.80;;;2.84
76898;BMP180;65856;52.178;21.176;2023-04-08T03:42:23;101153.80;;;2.80
76898;BMP180;65856;52.178;21.176;2023-04-08T03:44:51;101159.60;;;2.76
76898;BMP180;65856;52.178;21.176;2023-04-08T03:47:19;101161.80;;;2.70
76898;BMP180;65856;52.178;21.176;2023-04-08T03:49:47;101156.20;;;2.60
76898;BMP180;65856;52.178;21.176;2023-04-08T03:52:15;101162.40;;;2.50
76898;BMP180;65856;52.178;21.176;2023-04-08T03:54:43;101164.20;;;2.50
76898;BMP180;65856;52.178;21.176;2023-04-08T03:57:10;101172.20;;;2.40
76898;BMP180;65856;52.178;21.176;2023-04-08T03:59:38;101167.80;;;2.32
76898;BMP180;65856;52.178;21.176;2023-04-08T04:02:07;101169.00;;;2.30
76898;BMP180;65856;52.178;21.176;2023-04-08T04:04:35;101171.20;;;2.30
76898;BMP180;65856;52.178;21.176;2023-04-08T04:07:03;101172.60;;;2.20
76898;BMP180;65856;52.178;21.176;2023-04-08T04:09:31;101181.00;;;2.20
76898;BMP180;65856;52.178;21.176;2023-04-08T04:11:59;101184.80;;;2.20
76898;BMP180;65856;52.178;21.176;2023-04-08T04:14:27;101184.40;;;2.20
76898;BMP180;65856;52.178;21.176;2023-04-08T04:16:55;101185.80;;;2.20
76898;BMP180;65856;52.178;21.176;2023-04-08T04:19:22;101188.80;;;2.20
76898;BMP180;65856;52.178;21.176;2023-04-08T04:21:50;101193.40;;;2.20
76898;BMP180;65856;52.178;21.176;2023-04-08T04:24:18;101196.40;;;2.30
76898;BMP180;65856;52.178;21.176;2023-04-08T04:26:46;101197.80;;;2.30
76898;BMP180;65856;52.178;21.176;2023-04-08T04:29:14;101193.80;;;2.30
76898;BMP180;65856;52.178;21.176;2023-04-08T04:31:42;101200.60;;;2.30
76898;BMP180;65856;52.178;21.176;2023-04-08T04:34:09;101200.20;;;2.30
76898;BMP180;65856;52.178;21.176;2023-04-08T04:36:37;101208.60;;;2.36
76898;BMP180;65856;52.178;21.176;2023-04-08T04:39:05;101206.00;;;2.40
76898;BMP180;65856;52.178;21.176;2023-04-08T04:41:33;101210.40;;;2.46
76898;BMP180;65856;52.178;21.176;2023-04-08T04:44:05;101215.00;;;2.48
76898;BMP180;65856;52.178;21.176;2023-04-08T04:46:33;101211.80;;;2.50
76898;BMP180;65856;52.178;21.176;2023-04-08T04:49:01;101219.20;;;2.58
76898;BMP180;65856;52.178;21.176;2023-04-08T04:51:31;101218.40;;;2.66
76898;BMP180;65856;52.178;21.176;2023-04-08T04:53:59;101213.40;;;2.70
76898;BMP180;65856;52.178;21.176;2023-04-08T04:56:27;101210.20;;;2.80
76898;BMP180;65856;52.178;21.176;2023-04-08T04:58:55;101213.00;;;2.90
76898;BMP180;65856;52.178;21.176;2023-04-08T05:01:22;101221.80;;;2.92
76898;BMP180;65856;52.178;21.176;2023-04-08T05:03:50;101225.00;;;3.00
76898;BMP180;65856;52.178;21.176;2023-04-08T05:06:18;101226.40;;;3.10
76898;BMP180;65856;52.178;21.176;2023-04-08T05:08:46;101227.00;;;3.10
76898;BMP180;65856;52.178;21.176;2023-04-08T05:11:14;101225.80;;;3.20
76898;BMP180;65856;52.178;21.176;2023-04-08T05:13:44;101225.00;;;3.30
76898;BMP180;65856;52.178;21.176;2023-04-08T05:16:12;101227.60;;;3.40
76898;BMP180;65856;52.178;21.176;2023-04-08T05:18:40;101224.40;;;3.50
76898;BMP180;65856;52.178;21.176;2023-04-08T05:21:08;101232.00;;;3.60
76898;BMP180;65856;52.178;21.176;2023-04-08T05:23:36;101231.40;;;3.70
76898;BMP180;65856;52.178;21.176;2023-04-08T05:26:07;101237.60;;;3.74
76898;BMP180;65856;52.178;21.176;2023-04-08T05:28:35;101239.40;;;3.80
76898;BMP180;65856;52.178;21.176;2023-04-08T05:31:03;101235.40;;;3.90
76898;BMP180;65856;52.178;21.176;2023-04-08T05:33:31;101237.20;;;4.00
76898;BMP180;65856;52.178;21.176;2023-04-08T05:35:59;101237.00;;;4.10
76898;BMP180;65856;52.178;21.176;2023-04-08T05:38:27;101240.80;;;4.20
76898;BMP180;65856;52.178;21.176;2023-04-08T05:40:55;101250.00;;;4.30
76898;BMP180;65856;52.178;21.176;2023-04-08T05:43:23;101246.80;;;4.36
76898;BMP180;65856;52.178;21.176;2023-04-08T05:45:50;101249.00;;;4.48
76898;BMP180;65856;52.178;21.176;2023-04-08T05:48:18;101252.40;;;4.60
76898;BMP180;65856;52.178;21.176;2023-04-08T05:50:46;101246.60;;;4.78
76898;BMP180;65856;52.178;21.176;2023-04-08T05:53:15;101255.80;;;5.00
76898;BMP180;65856;52.178;21.176;2023-04-08T05:55:42;101257.80;;;5.20
76898;BMP180;65856;52.178;21.176;2023-04-08T05:58:10;101262.20;;;5.50
76898;BMP180;65856;52.178;21.176;2023-04-08T06:00:38;101263.20;;;5.80
76898;BMP180;65856;52.178;21.176;2023-04-08T06:03:06;101266.00;;;6.10
76898;BMP180;65856;52.178;21.176;2023-04-08T06:05:34;101267.80;;;6.40
76898;BMP180;65856;52.178;21.176;2023-04-08T06:08:02;101268.00;;;6.70
76898;BMP180;65856;52.178;21.176;2023-04-08T06:10:30;101267.00;;;7.02
76898;BMP180;65856;52.178;21.176;2023-04-08T06:12:58;101266.00;;;7.30
76898;BMP180;65856;52.178;21.176;2023-04-08T06:15:26;101267.80;;;7.62
76898;BMP180;65856;52.178;21.176;2023-04-08T06:17:54;101267.20;;;7.88
76898;BMP180;65856;52.178;21.176;2023-04-08T06:20:22;101273.20;;;8.08
76898;BMP180;65856;52.178;21.176;2023-04-08T06:22:51;101269.20;;;8.38
76898;BMP180;65856;52.178;21.176;2023-04-08T06:25:19;101266.80;;;8.62
76898;BMP180;65856;52.178;21.176;2023-04-08T06:27:46;101273.40;;;8.90
76898;BMP180;65856;52.178;21.176;2023-04-08T06:30:15;101271.60;;;9.20
76898;BMP180;65856;52.178;21.176;2023-04-08T06:32:43;101273.80;;;9.50
76898;BMP180;65856;52.178;21.176;2023-04-08T06:35:13;101273.80;;;9.80
76898;BMP180;65856;52.178;21.176;2023-04-08T06:37:42;101275.00;;;10.04
76898;BMP180;65856;52.178;21.176;2023-04-08T06:40:11;101276.60;;;10.30
76898;BMP180;65856;52.178;21.176;2023-04-08T06:42:39;101280.20;;;10.50
76898;BMP180;65856;52.178;21.176;2023-04-08T06:45:11;101281.40;;;10.74
76898;BMP180;65856;52.178;21.176;2023-04-08T06:47:38;101280.20;;;11.00
76898;BMP180;65856;52.178;21.176;2023-04-08T06:50:09;101279.60;;;11.20
76898;BMP180;65856;52.178;21.176;2023-04-08T06:52:37;101281.60;;;11.42
76898;BMP180;65856;52.178;21.176;2023-04-08T06:55:06;101283.60;;;11.70
76898;BMP180;65856;52.178;21.176;2023-04-08T06:57:34;101281.20;;;11.94
76898;BMP180;65856;52.178;21.176;2023-04-08T07:00:04;101279.00;;;12.18
76898;BMP180;65856;52.178;21.176;2023-04-08T07:02:33;101287.80;;;12.40
76898;BMP180;65856;52.178;21.176;2023-04-08T07:05:01;101285.00;;;12.60
76898;BMP180;65856;52.178;21.176;2023-04-08T07:07:29;101290.40;;;12.80
76898;BMP180;65856;52.178;21.176;2023-04-08T07:09:57;101286.20;;;13.00
76898;BMP180;65856;52.178;21.176;2023-04-08T07:12:25;101290.20;;;13.20
76898;BMP180;65856;52.178;21.176;2023-04-08T07:14:53;101286.20;;;13.30
76898;BMP180;65856;52.178;21.176;2023-04-08T07:17:21;101287.40;;;13.40
76898;BMP180;65856;52.178;21.176;2023-04-08T07:19:49;101284.80;;;13.50
76898;BMP180;65856;52.178;21.176;2023-04-08T07:22:18;101290.20;;;13.68
76898;BMP180;65856;52.178;21.176;2023-04-08T07:24:46;101296.60;;;13.78
76898;BMP180;65856;52.178;21.176;2023-04-08T07:27:16;101301.40;;;13.80
76898;BMP180;65856;52.178;21.176;2023-04-08T07:29:44;101302.20;;;13.90
76898;BMP180;65856;52.178;21.176;2023-04-08T07:32:12;101303.60;;;14.10
76898;BMP180;65856;52.178;21.176;2023-04-08T07:34:39;101304.20;;;14.30
76898;BMP180;65856;52.178;21.176;2023-04-08T07:37:08;101309.40;;;14.30
76898;BMP180;65856;52.178;21.176;2023-04-08T07:39:36;101311.40;;;14.50
76898;BMP180;65856;52.178;21.176;2023-04-08T07:42:04;101315.80;;;14.60
76898;BMP180;65856;52.178;21.176;2023-04-08T07:44:31;101311.20;;;14.70
76898;BMP180;65856;52.178;21.176;2023-04-08T07:46:59;101308.80;;;14.88
76898;BMP180;65856;52.178;21.176;2023-04-08T07:49:27;101310.00;;;14.90
76898;BMP180;65856;52.178;21.176;2023-04-08T07:51:55;101313.20;;;15.08
76898;BMP180;65856;52.178;21.176;2023-04-08T07:54:23;101316.20;;;15.00
76898;BMP180;65856;52.178;21.176;2023-04-08T07:56:51;101312.60;;;15.00
76898;BMP180;65856;52.178;21.176;2023-04-08T07:59:19;101314.80;;;14.90
76898;BMP180;65856;52.178;21.176;2023-04-08T08:01:47;101313.20;;;14.90
76898;BMP180;65856;52.178;21.176;2023-04-08T08:04:15;101313.20;;;15.10
76898;BMP180;65856;52.178;21.176;2023-04-08T08:06:43;101321.40;;;15.24
76898;BMP180;65856;52.178;21.176;2023-04-08T08:09:11;101315.60;;;15.40
76898;BMP180;65856;52.178;21.176;2023-04-08T08:11:39;101315.60;;;15.50
76898;BMP180;65856;52.178;21.176;2023-04-08T08:14:07;101318.80;;;15.60
76898;BMP180;65856;52.178;21.176;2023-04-08T08:16:35;101321.40;;;15.60
76898;BMP180;65856;52.178;21.176;2023-04-08T08:19:05;101325.00;;;15.80
76898;BMP180;65856;52.178;21.176;2023-04-08T08:21:36;101323.00;;;15.82
76898;BMP180;65856;52.178;21.176;2023-04-08T08:24:04;101321.20;;;15.82
76898;BMP180;65856;52.178;21.176;2023-04-08T08:26:34;101316.80;;;15.90
76898;BMP180;65856;52.178;21.176;2023-04-08T08:29:03;101323.60;;;16.12
76898;BMP180;65856;52.178;21.176;2023-04-08T08:31:32;101317.00;;;16.20
76898;BMP180;65856;52.178;21.176;2023-04-08T08:34:00;101317.60;;;16.30
76898;BMP180;65856;52.178;21.176;2023-04-08T08:36:29;101320.40;;;16.30
76898;BMP180;65856;52.178;21.176;2023-04-08T08:38:57;101318.00;;;16.30
76898;BMP180;65856;52.178;21.176;2023-04-08T08:41:25;101311.80;;;16.20
76898;BMP180;65856;52.178;21.176;2023-04-08T08:43:54;101312.00;;;16.24
76898;BMP180;65856;52.178;21.176;2023-04-08T08:46:23;101312.80;;;16.34
76898;BMP180;65856;52.178;21.176;2023-04-08T08:48:50;101310.60;;;16.30
76898;BMP180;65856;52.178;21.176;2023-04-08T08:51:19;101316.80;;;16.44
76898;BMP180;65856;52.178;21.176;2023-04-08T08:53:47;101311.20;;;16.48
76898;BMP180;65856;52.178;21.176;2023-04-08T08:56:17;101316.00;;;16.40
76898;BMP180;65856;52.178;21.176;2023-04-08T08:58:45;101310.20;;;16.50
76898;BMP180;65856;52.178;21.176;2023-04-08T09:01:36;101315.60;;;16.60
76898;BMP180;65856;52.178;21.176;2023-04-08T09:04:10;101316.20;;;16.70
76898;BMP180;65856;52.178;21.176;2023-04-08T09:06:39;101313.60;;;16.80
76898;BMP180;65856;52.178;21.176;2023-04-08T09:09:08;101325.40;;;16.80
76898;BMP180;65856;52.178;21.176;2023-04-08T09:11:39;101317.60;;;16.50
76898;BMP180;65856;52.178;21.176;2023-04-08T09:14:18;101320.80;;;16.50
76898;BMP180;65856;52.178;21.176;2023-04-08T09:16:46;101324.20;;;16.40
76898;BMP180;65856;52.178;21.176;2023-04-08T09:19:15;101320.80;;;16.30
76898;BMP180;65856;52.178;21.176;2023-04-08T09:21:43;101324.80;;;16.46
76898;BMP180;65856;52.178;21.176;2023-04-08T09:24:29;101328.00;;;16.50
76898;BMP180;65856;52.178;21.176;2023-04-08T09:26:57;101330.40;;;16.50
76898;BMP180;65856;52.178;21.176;2023-04-08T09:29:25;101335.60;;;16.40
76898;BMP180;65856;52.178;21.176;2023-04-08T09:31:58;101333.60;;;16.50
76898;BMP180;65856;52.178;21.176;2023-04-08T09:34:28;101332.80;;;16.54
76898;BMP180;65856;52.178;21.176;2023-04-08T09:36:57;101335.60;;;16.50
76898;BMP180;65856;52.178;21.176;2023-04-08T09:39:25;101336.40;;;16.50
76898;BMP180;65856;52.178;21.176;2023-04-08T09:41:54;101334.20;;;16.40
76898;BMP180;65856;52.178;21.176;2023-04-08T09:44:25;101335.20;;;16.40
76898;BMP180;65856;52.178;21.176;2023-04-08T09:47:07;101331.80;;;16.50
76898;BMP180;65856;52.178;21.176;2023-04-08T09:49:42;101337.60;;;16.40
76898;BMP180;65856;52.178;21.176;2023-04-08T09:52:23;101327.20;;;16.30
76898;BMP180;65856;52.178;21.176;2023-04-08T09:54:56;101325.80;;;16.28
76898;BMP180;65856;52.178;21.176;2023-04-08T09:57:39;101332.00;;;16.10
76898;BMP180;65856;52.178;21.176;2023-04-08T10:00:13;101317.20;;;16.10
76898;BMP180;65856;52.178;21.176;2023-04-08T10:02:54;101317.80;;;16.10
76898;BMP180;65856;52.178;21.176;2023-04-08T10:05:24;101320.80;;;15.90
76898;BMP180;65856;52.178;21.176;2023-04-08T10:07:55;101314.60;;;16.00
76898;BMP180;65856;52.178;21.176;2023-04-08T10:10:24;101322.40;;;16.10
76898;BMP180;65856;52.178;21.176;2023-04-08T10:12:53;101315.40;;;16.10
76898;BMP180;65856;52.178;21.176;2023-04-08T10:15:26;101315.40;;;16.10
76898;BMP180;65856;52.178;21.176;2023-04-08T10:18:28;101312.20;;;16.10
76898;BMP180;65856;52.178;21.176;2023-04-08T10:20:46;101316.00;;;16.20
76898;BMP180;65856;52.178;21.176;2023-04-08T10:23:15;101315.60;;;16.10
76898;BMP180;65856;52.178;21.176;2023-04-08T10:25:45;101321.20;;;16.00
76898;BMP180;65856;52.178;21.176;2023-04-08T10:28:26;101312.40;;;16.00
76898;BMP180;65856;52.178;21.176;2023-04-08T10:30:55;101308.40;;;16.10
76898;BMP180;65856;52.178;21.176;2023-04-08T10:33:31;101313.60;;;16.10
76898;BMP180;65856;52.178;21.176;2023-04-08T10:36:09;101318.00;;;16.10
76898;BMP180;65856;52.178;21.176;2023-04-08T10:38:37;101310.20;;;16.10
76898;BMP180;65856;52.178;21.176;2023-04-08T10:41:05;101308.80;;;16.18
76898;BMP180;65856;52.178;21.176;2023-04-08T10:43:34;101309.60;;;16.20
76898;BMP180;65856;52.178;21.176;2023-04-08T10:49:33;101305.60;;;16.18
76898;BMP180;65856;52.178;21.176;2023-04-08T10:52:07;101298.80;;;16.10
76898;BMP180;65856;52.178;21.176;2023-04-08T10:54:36;101302.60;;;16.10
76898;BMP180;65856;52.178;21.176;2023-04-08T10:57:05;101295.20;;;16.00
76898;BMP180;65856;52.178;21.176;2023-04-08T10:59:33;101294.40;;;16.00
76898;BMP180;65856;52.178;21.176;2023-04-08T11:02:03;101294.60;;;16.04
76898;BMP180;65856;52.178;21.176;2023-04-08T11:04:31;101299.00;;;16.10
76898;BMP180;65856;52.178;21.176;2023-04-08T11:06:59;101294.80;;;16.00
76898;BMP180;65856;52.178;21.176;2023-04-08T11:09:26;101302.80;;;16.10
76898;BMP180;65856;52.178;21.176;2023-04-08T11:11:54;101288.40;;;16.10
76898;BMP180;65856;52.178;21.176;2023-04-08T11:14:25;101288.20;;;16.00
76898;BMP180;65856;52.178;21.176;2023-04-08T11:16:53;101290.00;;;15.90
76898;BMP180;65856;52.178;21.176;2023-04-08T11:19:21;101298.40;;;15.90
76898;BMP180;65856;52.178;21.176;2023-04-08T11:21:51;101288.40;;;15.80
76898;BMP180;65856;52.178;21.176;2023-04-08T11:24:20;101295.80;;;15.80
76898;BMP180;65856;52.178;21.176;2023-04-08T11:26:49;101293.60;;;15.80
76898;BMP180;65856;52.178;21.176;2023-04-08T11:29:17;101294.80;;;15.80
76898;BMP180;65856;52.178;21.176;2023-04-08T11:31:45;101285.40;;;15.70
76898;BMP180;65856;52.178;21.176;2023-04-08T11:34:22;101291.00;;;15.70
76898;BMP180;65856;52.178;21.176;2023-04-08T11:36:51;101285.80;;;15.64
76898;BMP180;65856;52.178;21.176;2023-04-08T11:39:22;101289.00;;;15.68
76898;BMP180;65856;52.178;21.176;2023-04-08T11:41:50;101285.40;;;15.70
76898;BMP180;65856;52.178;21.176;2023-04-08T11:44:19;101279.80;;;15.60
76898;BMP180;65856;52.178;21.176;2023-04-08T11:46:56;101278.00;;;15.60
76898;BMP180;65856;52.178;21.176;2023-04-08T11:49:25;101275.80;;;15.60
76898;BMP180;65856;52.178;21.176;2023-04-08T11:51:57;101276.00;;;15.70
76898;BMP180;65856;52.178;21.176;2023-04-08T11:54:29;101276.20;;;15.60
76898;BMP180;65856;52.178;21.176;2023-04-08T11:56:59;101273.00;;;15.40
76898;BMP180;65856;52.178;21.176;2023-04-08T11:59:27;101273.20;;;15.20
76898;BMP180;65856;52.178;21.176;2023-04-08T12:01:55;101273.80;;;15.20
76898;BMP180;65856;52.178;21.176;2023-04-08T12:04:23;101275.60;;;15.20
76898;BMP180;65856;52.178;21.176;2023-04-08T12:06:51;101271.00;;;15.10
76898;BMP180;65856;52.178;21.176;2023-04-08T12:09:19;101275.40;;;15.00
76898;BMP180;65856;52.178;21.176;2023-04-08T12:11:46;101269.40;;;14.90
76898;BMP180;65856;52.178;21.176;2023-04-08T12:14:15;101270.40;;;14.80
76898;BMP180;65856;52.178;21.176;2023-04-08T12:16:43;101267.40;;;14.70
76898;BMP180;65856;52.178;21.176;2023-04-08T12:19:10;101260.00;;;14.70
76898;BMP180;65856;52.178;21.176;2023-04-08T12:21:38;101253.40;;;14.74
76898;BMP180;65856;52.178;21.176;2023-04-08T12:24:06;101253.40;;;14.80
76898;BMP180;65856;52.178;21.176;2023-04-08T12:26:34;101252.00;;;14.80
76898;BMP180;65856;52.178;21.176;2023-04-08T12:29:02;101247.60;;;14.70
76898;BMP180;65856;52.178;21.176;2023-04-08T12:31:30;101245.80;;;14.70
76898;BMP180;65856;52.178;21.176;2023-04-08T12:33:58;101245.60;;;14.80
76898;BMP180;65856;52.178;21.176;2023-04-08T12:36:26;101238.40;;;14.90
76898;BMP180;65856;52.178;21.176;2023-04-08T12:38:54;101244.20;;;14.92
76898;BMP180;65856;52.178;21.176;2023-04-08T12:41:22;101242.80;;;14.90
76898;BMP180;65856;52.178;21.176;2023-04-08T12:43:50;101238.00;;;15.00
76898;BMP180;65856;52.178;21.176;2023-04-08T12:46:18;101231.60;;;15.00
76898;BMP180;65856;52.178;21.176;2023-04-08T12:48:46;101233.80;;;15.08
76898;BMP180;65856;52.178;21.176;2023-04-08T12:51:14;101231.00;;;15.10
76898;BMP180;65856;52.178;21.176;2023-04-08T12:53:42;101236.20;;;15.20
76898;BMP180;65856;52.178;21.176;2023-04-08T12:56:10;101230.20;;;15.20
76898;BMP180;65856;52.178;21.176;2023-04-08T12:58:38;101233.20;;;15.28
76898;BMP180;65856;52.178;21.176;2023-04-08T13:01:06;101231.60;;;15.24
76898;BMP180;65856;52.178;21.176;2023-04-08T13:03:34;101229.20;;;15.30
76898;BMP180;65856;52.178;21.176;2023-04-08T13:06:02;101219.00;;;15.40
76898;BMP180;65856;52.178;21.176;2023-04-08T13:08:30;101219.40;;;15.30
76898;BMP180;65856;52.178;21.176;2023-04-08T13:10:58;101220.60;;;15.40
76898;BMP180;65856;52.178;21.176;2023-04-08T13:13:26;101217.80;;;15.40
76898;BMP180;65856;52.178;21.176;2023-04-08T13:15:54;101217.40;;;15.40
76898;BMP180;65856;52.178;21.176;2023-04-08T13:18:23;101220.00;;;15.50
76898;BMP180;65856;52.178;21.176;2023-04-08T13:20:51;101217.40;;;15.50
76898;BMP180;65856;52.178;21.176;2023-04-08T13:23:20;101216.20;;;15.50
76898;BMP180;65856;52.178;21.176;2023-04-08T13:25:48;101211.60;;;15.40
76898;BMP180;65856;52.178;21.176;2023-04-08T13:28:16;101213.00;;;15.40
76898;BMP180;65856;52.178;21.176;2023-04-08T13:30:44;101205.80;;;15.40
76898;BMP180;65856;52.178;21.176;2023-04-08T13:33:12;101204.00;;;15.40
76898;BMP180;65856;52.178;21.176;2023-04-08T13:35:39;101205.60;;;15.40
76898;BMP180;65856;52.178;21.176;2023-04-08T13:38:07;101203.80;;;15.40
76898;BMP180;65856;52.178;21.176;2023-04-08T13:40:35;101203.60;;;15.40
76898;BMP180;65856;52.178;21.176;2023-04-08T13:43:03;101201.40;;;15.34
76898;BMP180;65856;52.178;21.176;2023-04-08T13:45:31;101203.60;;;15.30
76898;BMP180;65856;52.178;21.176;2023-04-08T13:47:59;101205.00;;;15.30
76898;BMP180;65856;52.178;21.176;2023-04-08T13:50:27;101199.40;;;15.30
76898;BMP180;65856;52.178;21.176;2023-04-08T13:52:55;101200.40;;;15.30
76898;BMP180;65856;52.178;21.176;2023-04-08T13:55:23;101205.40;;;15.30
76898;BMP180;65856;52.178;21.176;2023-04-08T13:57:51;101205.20;;;15.22
76898;BMP180;65856;52.178;21.176;2023-04-08T14:00:19;101200.60;;;15.20
76898;BMP180;65856;52.178;21.176;2023-04-08T14:02:47;101203.60;;;15.10